AirNav   Pilot Hours Calculator
 
 592 users online  

FD45 Fort Walton Beach Medical Center Heliport
Fort Walton Beach, Florida, USA

GOING TO FORT WALTON BEACH?


FAA INFORMATION EFFECTIVE 02 JANUARY 2020

Location

FAA Identifier: FD45
Lat/Long: 30-27-18.5100N 086-37-57.6200W
30-27.308500N 086-37.960333W
30.4551417,-86.6326722
(estimated)
Elevation: 61 ft. / 19 m (estimated)
Variation: 00E (1985)
From city: 3 miles N of FORT WALTON BEACH, FL
Time zone: UTC -6 (UTC -5 during Daylight Saving Time)
Zip code: 32547

Heliport Operations

Heliport use: Private use, MEDICAL.
Activation date: 10/1985
Control tower: no
ARTCC: JACKSONVILLE CENTER
FSS: GAINESVILLE FLIGHT SERVICE STATION
Attendance: DAYLIGHT HOURS
Wind indicator: yes
Segmented circle: no

Heliport Communications

WX ASOS at DTS (9 nm E): PHONE 850-654-7128

Nearby radio navigation aids

VOR radial/distance  VOR name  Freq  Var
CEWr171/22.4CRESTVIEW VORTAC115.9003E
NUNr091/(36.4)SAUFLEY VOR108.8001E

 
NDB name  Hdg/Dist  Freq  Var  ID
PICKENS090/28.232602WPKZ .--. -.- --..

Heliport Services

Runway Information

Helipad H1

Dimensions: 43 x 50 ft. / 13 x 15 m
Surface: mats, in fair condition
Latitude: 30-27.308500N
Longitude: 086-37.960333W
Elevation: 61.0 ft.
Traffic pattern: leftleft

Heliport Ownership and Management from official FAA records

Ownership: Privately-owned
Owner: FORT WALTON BEACH MEDICAL CENTER
1000 MAR WALT DRIVE
FORT WALTON BEACH, FL 32547
Phone 850-863-7540
Manager: ANDY MILLER
1000 MAR WALT DRIVE
FORT WALTON BEACH, FL 32547
Phone 850-863-7540

Additional Remarks

FOR CD CTC EGLIN APCH 850-882-9152 OR 850-882-9151.

Instrument Procedures

There are no published instrument procedures at FD45.

Some nearby airports with instrument procedures:

KHRT - Hurlburt Field Airport (3 nm SW)
KVPS - Eglin Air Force Base/Destin-Fort Walton Beach Airport (6 nm E)
KDTS - Destin Executive Airport (9 nm E)
KEGI - Duke Field (Eglin AF Aux Nr 3) Airport (13 nm NE)
KCEW - Bob Sikes Airport (20 nm N)
 
Loc | Ops | Rwys | IFR | FBO | Links
Com | Nav | Svcs | Stats | Notes

Continental Services
AirBoss

 
Area around FD45 (Fort Walton Beach Medical Center Heliport)
 
Road maps at: MapQuest Bing Google
 
Aerial photo
No photo
 
Sectional chart

 
Airport distance calculator
Flying to Fort Walton Beach Medical Center Heliport? Find the distance to fly.

From to FD45

Sunrise and sunset
Times for 18-Jan-2020
 Local
(UTC-6)
 Zulu
(UTC)
Morning civil twilight06:1912:19
Sunrise06:4512:45
Sunset17:0923:09
Evening civil twilight17:3523:35

Current date and time
Zulu (UTC)  18-Jan-2020 10:35:20
Local (UTC-6)  18-Jan-2020 04:35:20
 
METAR
KHRT 
3nm SW 
180956Z AUTO 11011KT 10SM OVC017 16/12 A3030 RMK AO2 SLP262 T01560116 $
KVPS 
6nm E 
180956Z AUTO 11011KT 10SM BKN020 14/11 A3031 RMK AO2 BKN V SCT SLP271 T01430105 $
KDTS 
9nm E 
180953Z AUTO 11006KT 10SM SCT021 BKN026 OVC080 14/10 A3032 RMK AO2 SLP267 T01390100
KEGI 
12nm NE 
180856Z AUTO 12010KT 10SM BKN075 14/10 A3032 RMK AO2 SLP267 T01420096 56007 $
KCEW 
20nm N 
180953Z AUTO 12004KT 10SM FEW075 13/09 A3034 RMK AO2 SLP274 T01330089
TAF
KHRT 
3nm SW 
180800Z 1808/1908 11012G18KT 9999 BKN030 OVC050 QNH3029INS BECMG 1809/1810 10010G15KT 9999 BKN015 OVC025 QNH3026INS BECMG 1820/1821 15010KT 8000 SHRA BKN010 OVC020 QNH3014INS BECMG 1902/1903 18010KT 9999 NSW SCT010 BKN025 QNH3005INS TX20/1821Z TN15/1810Z LAST NO AMDS AFT 1808 NEXT 2013
KVPS 
6nm E 
180600Z 1806/1908 10012G19KT 9999 SCT040 OVC050 QNH3034INS BECMG 1807/1808 12013KT 9999 SCT016 BKN020 OVC060 QNH3032INS BECMG 1810/1811 11012G18KT 9999 SCT008 BKN014 OVC025 QNH3023INS BECMG 1817/1818 12013G22KT 9999 SCT014 BKN022 OVC050 QNH3018INS BECMG 1820/1821 15013G18KT 8000 -SHRA BKN014 OVC025 QNH3012INS BECMG 1906/1907 21013KT 9999 NSW SCT014 OVC025 QNH3008INS TX21/1821Z TN13/1811Z
KEGI 
12nm NE 
180600Z 1806/1908 11009KT 9999 BKN040 BKN250 QNH3033INS BECMG 1807/1808 10010KT 9999 BKN018 BKN025 QNH3031INS BECMG 1812/1813 11012G18KT 9999 FEW010 BKN012 QNH3025INS BECMG 1816/1817 12012G22KT 9999 VCSH FEW008 BKN012 QNH3018INS BECMG 1820/1821 15012G18KT 8000 -SHRA SCT008 BKN012 OVC025 QNH3016INS BECMG 1902/1903 24010G15KT 6000 -SHRA BKN010 OVC025 QNH3010INS TX23/1820Z TN11/1813Z LAST NO AMDS AFT 1706 NEXT 2010
NOTAMs
Click for the latest NOTAMs
NOTAMs are issued by the DoD/FAA and will open in a separate window not controlled by AirNav.

 

 
 

Would you like to see your business listed on this page?

 If your business provides an interesting product or service to pilots, flight crews, aircraft, or users of the Fort Walton Beach Medical Center Heliport, you should consider listing it here.  To start the listing process, click on the button below
 
Add a business
 

Other Pages about Fort Walton Beach Medical Center Heliport

Update a link
 
Copyright © AirNav, LLC. All rights reserved. Privacy Policy  Contact